Time;durP1;ratioP1;P1;durP2;ratioP2;P2;SDS_P1;SDS_P2;PMS_P1;PMS_P2;Temp;Humidity;BMP_temperature;BMP_pressure;BME280_temperature;BME280_humidity;BME280_pressure;Samples;Min_cycle;Max_cycle;Signal;HPM_P1;HPM_P2
2022/03/19 00:01:05;;;;;;;11.07;9.87;;;10.70;93.70;;;;;;5053265;28;20169;-64
2022/03/19 00:03:31;;;;;;;10.77;9.77;;;10.60;94.00;;;;;;5051543;28;20465;-66
2022/03/19 00:05:57;;;;;;;12.00;10.47;;;10.50;94.10;;;;;;5053282;28;20207;-64
2022/03/19 00:08:23;;;;;;;11.80;10.60;;;10.50;94.10;;;;;;5052894;28;20483;-65
2022/03/19 00:10:50;;;;;;;13.10;10.80;;;10.40;94.30;;;;;;5052668;28;20178;-64
2022/03/19 00:13:17;;;;;;;12.63;11.40;;;10.40;94.50;;;;;;5052882;28;20503;-64
2022/03/19 00:15:43;;;;;;;13.10;9.80;;;10.30;94.80;;;;;;5052623;28;20410;-64
2022/03/19 00:18:09;;;;;;;10.73;9.73;;;10.30;94.70;;;;;;5053156;28;20993;-64
2022/03/19 00:20:37;;;;;;;12.30;11.10;;;10.30;94.60;;;;;;5034362;28;20462;-65
2022/03/19 00:23:05;;;;;;;12.20;10.93;;;10.30;94.60;;;;;;5053006;28;20412;-64
2022/03/19 00:25:31;;;;;;;13.20;10.30;;;10.30;94.80;;;;;;5052709;28;20415;-75
2022/03/19 00:27:57;;;;;;;10.00;9.00;;;10.20;94.90;;;;;;5052669;28;20900;-64
2022/03/19 00:30:23;;;;;;;14.73;10.00;;;10.20;95.10;;;;;;5052896;28;20464;-65
2022/03/19 00:32:48;;;;;;;11.90;9.63;;;10.20;95.00;;;;;;5052262;28;20233;-64
2022/03/19 00:35:15;;;;;;;12.43;11.17;;;10.20;94.90;;;;;;5053254;28;20185;-64
2022/03/19 00:37:49;;;;;;;11.73;10.53;;;10.20;94.80;;;;;;5052478;28;20205;-64
2022/03/19 00:40:17;;;;;;;12.60;9.77;;;10.20;94.90;;;;;;5052748;28;20759;-64
2022/03/19 00:42:43;;;;;;;15.37;9.93;;;9.90;96.00;;;;;;5051833;28;20909;-64
2022/03/19 00:45:10;;;;;;;10.90;9.80;;;9.60;96.70;;;;;;5050966;28;20510;-64
2022/03/19 00:47:35;;;;;;;12.60;10.80;;;9.30;97.40;;;;;;5034000;28;20413;-65
2022/03/19 00:50:02;;;;;;;12.60;10.67;;;9.30;97.70;;;;;;5052319;28;20515;-64
2022/03/19 00:52:28;;;;;;;13.77;11.50;;;9.30;97.90;;;;;;5052611;28;20174;-64
2022/03/19 00:54:54;;;;;;;12.50;11.30;;;9.20;97.90;;;;;;5034094;28;20826;-64
2022/03/19 00:57:19;;;;;;;12.07;10.97;;;9.50;97.90;;;;;;5052505;28;20178;-65
2022/03/19 00:59:45;;;;;;;11.97;10.80;;;9.40;97.60;;;;;;5051893;28;20181;-65
2022/03/19 01:02:11;;;;;;;11.83;10.47;;;9.30;97.90;;;;;;5050947;28;20196;-64
2022/03/19 01:04:37;;;;;;;12.67;11.20;;;9.40;97.60;;;;;;5050709;28;20310;-64
2022/03/19 01:07:03;;;;;;;11.93;10.80;;;9.50;97.30;;;;;;5052852;28;20192;-64
2022/03/19 01:09:28;;;;;;;10.33;9.33;;;9.60;97.10;;;;;;5052218;28;20200;-64
2022/03/19 01:11:54;;;;;;;12.43;11.13;;;9.70;96.90;;;;;;5050645;28;20413;-65
2022/03/19 01:14:20;;;;;;;12.13;10.93;;;9.70;96.80;;;;;;5052442;28;20217;-64
2022/03/19 01:16:46;;;;;;;14.03;10.13;;;9.70;96.50;;;;;;5051708;28;20174;-64
2022/03/19 01:19:12;;;;;;;11.90;10.23;;;9.80;96.20;;;;;;5052584;28;20494;-64
2022/03/19 01:21:39;;;;;;;12.80;10.30;;;9.70;96.20;;;;;;5055453;28;20307;-65
2022/03/19 01:24:06;;;;;;;14.70;10.57;;;9.70;96.60;;;;;;5056345;28;20209;-64
2022/03/19 01:26:32;;;;;;;10.30;9.20;;;9.70;96.50;;;;;;5056013;28;20413;-64
2022/03/19 01:28:58;;;;;;;11.53;10.43;;;9.70;96.60;;;;;;5055982;28;20416;-64
2022/03/19 01:31:26;;;;;;;11.20;10.00;;;9.70;96.40;;;;;;5056429;28;20427;-64
2022/03/19 01:33:54;;;;;;;11.07;9.53;;;9.60;96.80;;;;;;5055605;28;20479;-64
2022/03/19 01:36:20;;;;;;;13.10;9.73;;;9.50;96.70;;;;;;5056512;28;20413;-64
2022/03/19 01:38:46;;;;;;;12.80;10.00;;;9.40;97.10;;;;;;5055517;28;20415;-64
2022/03/19 01:41:12;;;;;;;11.60;10.40;;;9.30;97.30;;;;;;5056040;28;20790;-64
2022/03/19 01:43:38;;;;;;;12.47;11.27;;;9.20;97.50;;;;;;5055440;28;20452;-65
2022/03/19 01:46:04;;;;;;;11.90;10.40;;;9.20;97.90;;;;;;5056265;28;20416;-65
2022/03/19 01:48:30;;;;;;;12.17;9.70;;;9.30;97.70;;;;;;5056251;28;20404;-64
2022/03/19 01:50:56;;;;;;;12.10;10.03;;;9.30;97.50;;;;;;5053996;28;20423;-65
2022/03/19 01:53:22;;;;;;;11.60;10.10;;;9.40;97.50;;;;;;5055869;28;20268;-65
2022/03/19 01:55:48;;;;;;;11.17;10.10;;;9.30;97.50;;;;;;5055201;28;20412;-65
2022/03/19 01:58:14;;;;;;;12.27;9.50;;;9.40;97.30;;;;;;5055837;28;20205;-64
2022/03/19 02:00:40;;;;;;;12.33;9.97;;;9.50;97.20;;;;;;5055440;28;20232;-65
2022/03/19 02:03:06;;;;;;;12.20;9.90;;;9.40;97.10;;;;;;5054276;28;20435;-64
2022/03/19 02:05:32;;;;;;;10.73;9.50;;;9.50;96.90;;;;;;5055590;28;20423;-65
2022/03/19 02:07:57;;;;;;;10.00;9.00;;;9.50;96.90;;;;;;5055018;28;20416;-64
2022/03/19 02:10:23;;;;;;;12.50;9.47;;;9.50;96.80;;;;;;5055565;28;20869;-64
2022/03/19 02:12:50;;;;;;;11.60;10.50;;;9.40;97.00;;;;;;5053846;28;20622;-64
2022/03/19 02:15:16;;;;;;;11.00;9.30;;;9.30;97.30;;;;;;5055517;28;20412;-65
2022/03/19 02:17:42;;;;;;;12.47;9.93;;;9.30;97.50;;;;;;5055066;28;20515;-65
2022/03/19 02:20:09;;;;;;;10.57;9.50;;;9.40;97.50;;;;;;5054182;28;20873;-64
2022/03/19 02:22:35;;;;;;;13.30;9.60;;;9.30;97.60;;;;;;5054165;28;20424;-64
2022/03/19 02:27:46;;;;;;;10.30;9.40;;;9.40;97.30;;;;;;5054661;28;20729;-65
2022/03/19 02:30:14;;;;;;;9.40;8.50;;;9.40;97.40;;;;;;5054627;28;20424;-65
2022/03/19 02:32:42;;;;;;;11.30;8.47;;;9.50;97.40;;;;;;5054335;28;20545;-65
2022/03/19 02:35:09;;;;;;;11.37;8.63;;;9.50;97.30;;;;;;5053902;28;20436;-65
2022/03/19 02:37:43;;;;;;;9.23;8.20;;;9.50;97.20;;;;;;5055144;28;20416;-64
2022/03/19 02:40:14;;;;;;;9.80;8.83;;;9.50;97.10;;;;;;5054997;28;20405;-64
2022/03/19 02:42:40;;;;;;;10.33;8.70;;;9.40;97.20;;;;;;5054229;28;20400;-73
2022/03/19 02:45:07;;;;;;;11.97;8.83;;;9.40;97.60;;;;;;5054863;28;20444;-64
2022/03/19 02:47:33;;;;;;;10.73;8.97;;;9.40;97.80;;;;;;5054826;28;20420;-64
2022/03/19 02:49:59;;;;;;;12.00;9.80;;;9.40;97.70;;;;;;5054290;28;20412;-65
2022/03/19 02:52:25;;;;;;;9.90;8.90;;;9.40;97.70;;;;;;5054749;28;20467;-64
2022/03/19 02:54:51;;;;;;;9.97;9.07;;;9.30;97.70;;;;;;5052932;28;20416;-65
2022/03/19 02:57:17;;;;;;;10.43;9.33;;;9.00;97.70;;;;;;5054357;28;20178;-64
2022/03/19 02:59:42;;;;;;;10.00;9.03;;;9.30;97.90;;;;;;5053748;28;20256;-65
2022/03/19 03:02:08;;;;;;;10.10;9.10;;;9.30;97.90;;;;;;5054819;28;20178;-64
2022/03/19 03:04:34;;;;;;;10.57;9.30;;;9.20;97.80;;;;;;5052970;28;20277;-64
2022/03/19 03:07:02;;;;;;;12.37;8.33;;;9.20;98.20;;;;;;5053555;28;20699;-67
2022/03/19 03:09:29;;;;;;;10.00;9.00;;;9.20;98.30;;;;;;5054242;28;20425;-64
2022/03/19 03:11:58;;;;;;;9.40;8.50;;;9.10;98.00;;;;;;5053486;28;20914;-64
2022/03/19 03:14:24;;;;;;;10.20;8.40;;;9.10;97.90;;;;;;5054401;28;20497;-65
2022/03/19 03:16:52;;;;;;;11.93;9.40;;;9.20;97.80;;;;;;5053992;28;20421;-65
2022/03/19 03:19:19;;;;;;;10.17;9.10;;;9.20;97.70;;;;;;5054296;28;20477;-64
2022/03/19 03:21:45;;;;;;;11.37;8.97;;;9.20;97.50;;;;;;5053604;28;20424;-65
2022/03/19 03:24:12;;;;;;;11.93;9.73;;;9.00;98.00;;;;;;5054216;28;20464;-64
2022/03/19 03:26:39;;;;;;;18.33;9.87;;;8.90;97.90;;;;;;5054453;28;20424;-64
2022/03/19 03:29:06;;;;;;;12.50;9.73;;;8.70;99.20;;;;;;5053443;28;20416;-64
2022/03/19 03:31:32;;;;;;;11.13;9.23;;;8.70;99.00;;;;;;5054108;28;20439;-64
2022/03/19 03:33:59;;;;;;;9.43;8.63;;;8.70;99.00;;;;;;5053668;28;20496;-64
2022/03/19 03:36:24;;;;;;;11.50;10.30;;;8.80;99.00;;;;;;5053985;28;20511;-64
2022/03/19 03:38:51;;;;;;;9.57;8.70;;;8.80;98.80;;;;;;5053312;28;20549;-65
2022/03/19 03:41:16;;;;;;;13.13;11.17;;;8.80;98.90;;;;;;5054089;28;20182;-64
2022/03/19 03:43:43;;;;;;;10.30;9.17;;;8.80;98.80;;;;;;5053135;28;20448;-64
2022/03/19 03:46:09;;;;;;;10.43;9.50;;;8.80;98.90;;;;;;5053787;28;20269;-64
2022/03/19 03:48:36;;;;;;;14.00;9.63;;;8.80;98.80;;;;;;5052431;28;20507;-64
2022/03/19 03:51:03;;;;;;;11.30;9.33;;;8.80;99.10;;;;;;5053003;28;20196;-64
2022/03/19 03:53:29;;;;;;;9.73;8.90;;;8.70;99.10;;;;;;5053591;28;20419;-64
2022/03/19 03:55:57;;;;;;;17.53;10.00;;;8.70;98.90;;;;;;5052690;28;20460;-64
2022/03/19 03:58:24;;;;;;;12.43;10.20;;;8.50;99.40;;;;;;5053480;28;20467;-64
2022/03/19 04:00:53;;;;;;;11.20;10.00;;;8.40;99.80;;;;;;5052668;28;20407;-64
2022/03/19 04:03:20;;;;;;;11.50;10.33;;;8.40;99.90;;;;;;5053406;28;20425;-64
2022/03/19 04:05:46;;;;;;;10.57;9.67;;;8.40;99.90;;;;;;5052779;28;20422;-65
2022/03/19 04:08:11;;;;;;;11.17;10.17;;;8.40;99.90;;;;;;5053313;28;20411;-64
2022/03/19 04:10:37;;;;;;;10.83;9.73;;;8.50;99.90;;;;;;5052260;28;20526;-64
2022/03/19 04:13:03;;;;;;;10.77;9.73;;;8.50;99.90;;;;;;5052608;28;20383;-64
2022/03/19 04:15:29;;;;;;;11.17;10.00;;;8.50;99.50;;;;;;5052148;28;20255;-64
2022/03/19 04:17:55;;;;;;;10.73;9.70;;;8.60;99.40;;;;;;5052837;28;20420;-64
2022/03/19 04:20:22;;;;;;;12.50;10.13;;;8.60;99.20;;;;;;5053286;28;20688;-64
2022/03/19 04:22:49;;;;;;;11.00;9.90;;;8.70;99.10;;;;;;5052593;28;20184;-65
2022/03/19 04:25:25;;;;;;;10.50;9.50;;;8.70;99.00;;;;;;5051525;28;21042;-65
2022/03/19 04:27:54;;;;;;;9.80;9.00;;;8.60;99.10;;;;;;5051293;28;20465;-65
2022/03/19 04:30:22;;;;;;;12.77;9.40;;;8.60;99.30;;;;;;5052775;28;20417;-64
2022/03/19 04:32:50;;;;;;;10.90;9.80;;;8.60;99.40;;;;;;5052365;28;20416;-65
2022/03/19 04:38:09;;;;;;;10.00;8.83;;;8.60;99.60;;;;;;5052017;28;20404;-65
2022/03/19 04:40:36;;;;;;;11.40;10.20;;;8.60;99.30;;;;;;5052644;28;20408;-65
2022/03/19 04:43:03;;;;;;;15.90;14.30;;;8.60;99.20;;;;;;5051868;28;20898;-65
2022/03/19 04:45:29;;;;;;;17.07;13.70;;;8.50;99.40;;;;;;5052677;28;20459;-64
2022/03/19 04:47:55;;;;;;;20.60;15.03;;;8.70;99.90;;;;;;5051854;28;20421;-64
2022/03/19 04:50:21;;;;;;;15.50;12.40;;;8.60;99.90;;;;;;5052669;28;20424;-64
2022/03/19 04:52:49;;;;;;;13.47;11.10;;;8.50;99.90;;;;;;5052280;28;20416;-77
2022/03/19 04:55:15;;;;;;;19.83;13.87;;;8.60;99.90;;;;;;5051662;28;20514;-64
2022/03/19 04:57:41;;;;;;;22.87;16.07;;;8.60;99.90;;;;;;5052561;28;20400;-64
2022/03/19 05:00:10;;;;;;;35.07;20.97;;;8.50;99.90;;;;;;5051880;28;21234;-64
2022/03/19 05:02:36;;;;;;;27.70;17.40;;;8.50;99.80;;;;;;5052214;28;20227;-64
2022/03/19 05:05:02;;;;;;;18.00;14.43;;;8.50;99.40;;;;;;5033980;28;20995;-64
2022/03/19 05:07:28;;;;;;;13.63;11.23;;;8.50;99.40;;;;;;5052517;28;20444;-64
2022/03/19 05:12:41;;;;;;;13.37;12.17;;;8.10;99.80;;;;;;5052484;28;20162;-64
2022/03/19 05:15:11;;;;;;;11.93;9.87;;;8.00;99.90;;;;;;5050945;28;20415;-64
2022/03/19 05:17:38;;;;;;;11.90;10.63;;;7.80;99.90;;;;;;5052490;28;20486;-64
2022/03/19 05:20:05;;;;;;;12.30;11.00;;;7.40;99.90;;;;;;5051930;28;20857;-64
2022/03/19 05:22:31;;;;;;;12.60;10.37;;;7.20;99.90;;;;;;5051162;28;20477;-64
2022/03/19 05:24:57;;;;;;;10.40;9.30;;;7.20;99.90;;;;;;5050597;28;20953;-65
2022/03/19 05:27:23;;;;;;;11.50;10.07;;;7.40;99.90;;;;;;5051201;28;20398;-64
2022/03/19 05:29:49;;;;;;;15.13;10.40;;;7.40;99.90;;;;;;5051678;28;20474;-75
2022/03/19 05:32:16;;;;;;;12.43;10.40;;;7.60;99.90;;;;;;5050901;28;20840;-64
2022/03/19 05:34:42;;;;;;;13.77;12.37;;;7.40;99.90;;;;;;5052282;28;20422;-64
2022/03/19 05:37:09;;;;;;;12.67;11.20;;;7.40;99.90;;;;;;5051557;28;20994;-64
2022/03/19 05:39:36;;;;;;;13.10;10.70;;;7.40;99.90;;;;;;5052117;28;20414;-64
2022/03/19 05:42:02;;;;;;;15.03;12.20;;;7.40;99.90;;;;;;5051575;28;20890;-64
2022/03/19 05:44:28;;;;;;;11.20;10.00;;;7.50;99.90;;;;;;5052081;28;20545;-64
2022/03/19 05:46:54;;;;;;;11.23;10.03;;;7.60;99.90;;;;;;5051032;28;20525;-64
2022/03/19 05:49:19;;;;;;;12.13;10.93;;;7.60;99.90;;;;;;5052084;28;20177;-64
2022/03/19 05:51:45;;;;;;;11.53;9.13;;;7.70;99.90;;;;;;5051933;28;20497;-64
2022/03/19 05:54:11;;;;;;;13.57;12.17;;;7.50;99.90;;;;;;5051679;28;20177;-64
2022/03/19 05:56:37;;;;;;;12.27;9.97;;;7.30;99.90;;;;;;5051851;28;20568;-64
2022/03/19 05:59:06;;;;;;;18.53;12.57;;;7.90;99.90;;;;;;5051374;28;20187;-64
2022/03/19 06:01:32;;;;;;;17.40;12.10;;;7.90;99.90;;;;;;5051901;28;20423;-64
2022/03/19 06:03:59;;;;;;;13.03;11.00;;;8.00;99.90;;;;;;5049846;28;20476;-64
2022/03/19 06:06:26;;;;;;;12.97;11.80;;;8.00;99.90;;;;;;5053866;28;20192;-63
2022/03/19 06:08:52;;;;;;;13.07;10.63;;;8.00;99.90;;;;;;5054802;28;20416;-69
2022/03/19 06:11:19;;;;;;;15.00;12.43;;;8.00;99.90;;;;;;5055570;28;20419;-63
2022/03/19 06:13:45;;;;;;;13.70;12.30;;;8.00;99.90;;;;;;5054622;28;20421;-64
2022/03/19 06:16:11;;;;;;;13.60;11.67;;;8.00;99.90;;;;;;5054134;28;20410;-64
2022/03/19 06:18:37;;;;;;;22.90;12.23;;;8.10;99.90;;;;;;5055103;28;20415;-64
2022/03/19 06:21:03;;;;;;;13.37;11.97;;;8.10;99.90;;;;;;5054104;28;20451;-64
2022/03/19 06:23:30;;;;;;;13.80;11.50;;;8.10;99.90;;;;;;5037413;28;20408;-66
2022/03/19 06:25:56;;;;;;;11.53;10.33;;;8.20;99.90;;;;;;5053576;28;20420;-64
2022/03/19 06:28:22;;;;;;;13.23;11.97;;;8.30;99.90;;;;;;5054959;28;20412;-64
2022/03/19 06:30:48;;;;;;;13.43;11.43;;;8.30;99.90;;;;;;5055174;28;20423;-64
2022/03/19 06:33:14;;;;;;;14.93;13.33;;;8.40;99.90;;;;;;5054502;28;20423;-64
2022/03/19 06:38:27;;;;;;;23.30;17.53;;;8.40;99.90;;;;;;5054965;28;20871;-64
2022/03/19 06:40:54;;;;;;;15.30;13.73;;;8.30;99.90;;;;;;5054513;28;20769;-71
2022/03/19 06:43:21;;;;;;;17.60;11.93;;;8.30;99.90;;;;;;5054885;28;20411;-63
2022/03/19 06:45:47;;;;;;;17.70;14.30;;;8.30;99.90;;;;;;5055192;28;20423;-63
2022/03/19 06:48:12;;;;;;;15.10;13.17;;;8.40;99.90;;;;;;5054248;28;20460;-63
2022/03/19 06:50:38;;;;;;;16.50;14.00;;;8.40;99.90;;;;;;5054783;28;20897;-63
2022/03/19 06:53:04;;;;;;;15.43;13.83;;;8.40;99.90;;;;;;5054183;28;20230;-64
2022/03/19 06:55:32;;;;;;;19.00;13.07;;;8.50;99.90;;;;;;5054928;28;20173;-63
2022/03/19 06:57:58;;;;;;;90.73;59.10;;;8.60;99.90;;;;;;5054057;28;20419;-63
2022/03/19 07:00:25;;;;;;;50.93;30.77;;;8.70;99.90;;;;;;5054437;28;20417;-63
2022/03/19 07:02:52;;;;;;;16.17;12.97;;;8.60;99.90;;;;;;5054831;28;20447;-63
2022/03/19 07:05:26;;;;;;;16.30;12.17;;;8.50;99.90;;;;;;5053534;28;20452;-63
2022/03/19 07:07:54;;;;;;;18.10;13.80;;;8.60;99.90;;;;;;5053403;28;20754;-62
2022/03/19 07:10:21;;;;;;;16.60;13.10;;;8.60;99.90;;;;;;5054637;28;20419;-63
2022/03/19 07:12:51;;;;;;;14.67;12.73;;;8.60;99.90;;;;;;5054309;28;20400;-63
2022/03/19 07:15:20;;;;;;;14.13;12.73;;;8.60;99.90;;;;;;5053464;28;20774;-63
2022/03/19 07:17:46;;;;;;;14.50;11.33;;;8.50;99.90;;;;;;5053266;28;20412;-63
2022/03/19 07:20:14;;;;;;;13.43;12.13;;;8.50;99.90;;;;;;5053549;28;20456;-63
2022/03/19 07:22:55;;;;;;;12.90;11.70;;;8.60;99.90;;;;;;5054161;28;20442;-63
2022/03/19 07:25:26;;;;;;;14.70;12.00;;;8.70;99.90;;;;;;5053877;28;20455;-64
2022/03/19 07:27:55;;;;;;;15.23;13.63;;;8.70;99.90;;;;;;5053746;28;20404;-63
2022/03/19 07:30:22;;;;;;;13.97;12.57;;;8.80;99.90;;;;;;5053914;28;20505;-63
2022/03/19 07:32:48;;;;;;;13.30;12.03;;;8.80;99.90;;;;;;5053685;28;20773;-63
2022/03/19 07:35:14;;;;;;;13.50;11.57;;;8.80;99.90;;;;;;5053288;28;20408;-63
2022/03/19 07:37:41;;;;;;;21.23;15.83;;;8.90;99.90;;;;;;5054184;28;20431;-65
2022/03/19 07:40:08;;;;;;;18.90;14.50;;;8.90;99.90;;;;;;5053277;28;20424;-65
2022/03/19 07:42:37;;;;;;;14.97;12.80;;;9.00;99.90;;;;;;5053527;28;20405;-65
2022/03/19 07:45:04;;;;;;;19.43;13.70;;;9.00;99.90;;;;;;5053064;28;20534;-64
2022/03/19 07:47:31;;;;;;;13.73;12.23;;;9.00;99.90;;;;;;5053666;28;20412;-65
2022/03/19 07:49:57;;;;;;;16.87;11.30;;;9.10;99.90;;;;;;5053893;28;20880;-65
2022/03/19 07:52:24;;;;;;;12.20;10.80;;;9.10;99.90;;;;;;5053552;28;20431;-65
2022/03/19 07:54:50;;;;;;;12.73;11.00;;;9.10;99.90;;;;;;5053545;28;20439;-65
2022/03/19 07:57:16;;;;;;;16.57;12.00;;;9.20;99.90;;;;;;5051763;28;20405;-65
2022/03/19 07:59:42;;;;;;;11.30;10.13;;;9.30;99.90;;;;;;5053172;28;20415;-65
2022/03/19 08:02:10;;;;;;;18.43;11.30;;;9.30;99.90;;;;;;5053028;28;20185;-65
2022/03/19 08:04:36;;;;;;;15.10;12.30;;;9.40;99.90;;;;;;5052731;28;20292;-65
2022/03/19 08:07:02;;;;;;;12.70;11.40;;;9.40;99.90;;;;;;5052821;28;20479;-65
2022/03/19 08:09:27;;;;;;;13.80;12.40;;;9.50;99.90;;;;;;5052357;28;20691;-65
2022/03/19 08:11:53;;;;;;;15.23;13.33;;;9.60;99.90;;;;;;5053253;28;20197;-65
2022/03/19 08:14:19;;;;;;;16.53;12.40;;;9.70;99.90;;;;;;5052670;28;20261;-64
2022/03/19 08:16:49;;;;;;;19.83;14.67;;;9.70;99.90;;;;;;5052762;28;20174;-65
2022/03/19 08:19:15;;;;;;;13.33;12.20;;;9.60;99.90;;;;;;5052107;28;20419;-65
2022/03/19 08:21:44;;;;;;;11.83;9.70;;;9.80;99.90;;;;;;5053224;28;20798;-64
2022/03/19 08:24:11;;;;;;;12.77;11.57;;;9.90;99.90;;;;;;5052442;28;20795;-65
2022/03/19 08:26:38;;;;;;;13.50;11.10;;;10.00;99.90;;;;;;5053082;28;20512;-65
2022/03/19 08:29:04;;;;;;;12.63;11.33;;;10.10;99.90;;;;;;5052179;28;20406;-65
2022/03/19 08:31:31;;;;;;;13.80;11.77;;;10.10;99.90;;;;;;5052385;28;20427;-64
2022/03/19 08:33:57;;;;;;;16.57;13.07;;;10.20;99.60;;;;;;5052753;28;20421;-65
2022/03/19 08:36:23;;;;;;;14.07;10.10;;;10.20;98.90;;;;;;5052318;28;20409;-64
2022/03/19 08:41:34;;;;;;;10.90;9.80;;;10.40;99.00;;;;;;5052951;28;20396;-65
2022/03/19 08:44:01;;;;;;;18.33;14.10;;;10.50;98.40;;;;;;5051415;28;20473;-65
2022/03/19 08:46:27;;;;;;;14.43;11.43;;;10.70;98.10;;;;;;5052836;28;20203;-64
2022/03/19 08:48:53;;;;;;;16.07;10.80;;;10.70;97.50;;;;;;5051507;28;20761;-64
2022/03/19 08:54:05;;;;;;;11.80;10.70;;;10.90;96.80;;;;;;5051549;28;20206;-65
2022/03/19 08:56:31;;;;;;;16.53;12.43;;;10.90;96.90;;;;;;5052594;28;20420;-65
2022/03/19 08:58:57;;;;;;;12.17;10.97;;;11.10;97.10;;;;;;5052580;28;20910;-64
2022/03/19 09:01:23;;;;;;;12.50;9.83;;;11.20;96.20;;;;;;5052023;28;20827;-64
2022/03/19 09:03:49;;;;;;;11.50;10.30;;;11.20;94.70;;;;;;5052442;28;20520;-64
2022/03/19 09:06:15;;;;;;;11.00;9.87;;;11.20;95.10;;;;;;5051863;28;20408;-65
2022/03/19 09:08:42;;;;;;;11.60;10.50;;;11.30;94.90;;;;;;5052380;28;20185;-65
2022/03/19 09:11:07;;;;;;;13.50;10.60;;;11.30;94.50;;;;;;5051450;28;20829;-65
2022/03/19 09:13:33;;;;;;;13.93;12.27;;;11.40;94.30;;;;;;5052456;28;20419;-65
2022/03/19 09:15:59;;;;;;;10.30;9.40;;;11.40;94.00;;;;;;5034699;28;20963;-65
2022/03/19 09:18:26;;;;;;;10.30;9.30;;;11.60;94.00;;;;;;5051456;28;20962;-64
2022/03/19 09:20:52;;;;;;;13.80;10.10;;;11.60;93.50;;;;;;5052441;28;20525;-65
2022/03/19 09:23:17;;;;;;;18.50;13.53;;;11.60;93.30;;;;;;5051737;28;20436;-65
2022/03/19 09:25:43;;;;;;;10.20;9.10;;;11.60;92.40;;;;;;5052222;28;20562;-64
2022/03/19 09:28:09;;;;;;;20.00;12.07;;;11.60;92.20;;;;;;5051419;28;20204;-65
2022/03/19 09:30:35;;;;;;;11.07;8.73;;;11.70;93.10;;;;;;5052297;28;20177;-65
2022/03/19 09:33:01;;;;;;;11.93;9.77;;;11.80;91.60;;;;;;5052220;28;20764;-65
2022/03/19 09:35:27;;;;;;;11.00;8.43;;;12.00;91.90;;;;;;5051590;28;20265;-65
2022/03/19 09:37:52;;;;;;;12.93;9.87;;;12.20;90.50;;;;;;5052153;28;20182;-65
2022/03/19 09:40:19;;;;;;;9.87;8.77;;;12.40;90.40;;;;;;5052294;28;20408;-65
2022/03/19 09:42:53;;;;;;;9.10;8.30;;;12.70;88.40;;;;;;5055603;28;20182;-65
2022/03/19 09:45:20;;;;;;;15.43;12.97;;;12.90;86.30;;;;;;5055143;28;20444;-65
2022/03/19 09:47:47;;;;;;;9.57;8.23;;;13.30;86.30;;;;;;5055862;28;20932;-65
2022/03/19 09:50:13;;;;;;;11.27;8.30;;;13.60;85.50;;;;;;5053824;28;20765;-65
2022/03/19 09:52:41;;;;;;;12.17;9.87;;;13.80;81.70;;;;;;5055767;28;20509;-65
2022/03/19 09:55:08;;;;;;;17.97;15.43;;;14.10;81.70;;;;;;5070666;28;20430;-65
2022/03/19 09:57:34;;;;;;;13.13;9.83;;;14.50;83.60;;;;;;5055735;28;20424;-65
2022/03/19 10:00:01;;;;;;;13.30;10.00;;;15.00;82.50;;;;;;5055551;28;20464;-65
2022/03/19 10:02:26;;;;;;;9.43;8.53;;;15.40;77.20;;;;;;5054784;28;20418;-65
2022/03/19 10:04:53;;;;;;;11.43;10.23;;;15.60;75.80;;;;;;5054149;28;20467;-65
2022/03/19 10:10:09;;;;;;;11.13;10.07;;;16.10;70.60;;;;;;5055051;28;20426;-65
2022/03/19 10:12:36;;;;;;;8.50;7.70;;;16.20;67.50;;;;;;5055496;28;20419;-65
2022/03/19 10:15:09;;;;;;;9.03;8.13;;;16.30;68.50;;;;;;5055733;28;20423;-65
2022/03/19 10:17:39;;;;;;;9.43;6.80;;;16.40;67.80;;;;;;5055647;28;20466;-65
2022/03/19 10:20:09;;;;;;;8.53;6.50;;;16.40;64.80;;;;;;5055114;28;20537;-65
2022/03/19 10:22:42;;;;;;;7.23;6.37;;;16.30;62.40;;;;;;5055464;28;20408;-65
2022/03/19 10:25:10;;;;;;;11.17;7.90;;;16.30;63.10;;;;;;5054726;28;20517;-66
2022/03/19 10:27:41;;;;;;;7.80;7.00;;;16.50;62.70;;;;;;5053446;28;20928;-65
2022/03/19 10:30:11;;;;;;;9.40;7.17;;;16.60;62.00;;;;;;5055015;28;20770;-76
2022/03/19 10:32:41;;;;;;;8.13;6.80;;;16.60;61.90;;;;;;5055168;28;20427;-65
2022/03/19 10:35:26;;;;;;;7.90;6.90;;;16.50;59.10;;;;;;5054403;28;20408;-75
2022/03/19 10:37:53;;;;;;;9.10;7.43;;;16.60;59.00;;;;;;5055031;28;20420;-66
2022/03/19 10:40:19;;;;;;;43.93;33.30;;;16.80;58.60;;;;;;5053336;28;20462;-67
2022/03/19 10:42:44;;;;;;;42.13;35.97;;;16.80;63.30;;;;;;5054960;28;20443;-66
2022/03/19 10:45:18;;;;;;;20.90;16.87;;;17.30;60.80;;;;;;5054314;28;20456;-67
2022/03/19 10:47:46;;;;;;;6.87;5.80;;;17.80;60.10;;;;;;5054600;28;20177;-67
2022/03/19 10:50:19;;;;;;;5.10;4.70;;;18.10;56.80;;;;;;5054590;28;20423;-67
2022/03/19 10:52:46;;;;;;;5.60;5.10;;;18.30;52.70;;;;;;5054887;28;20408;-67
2022/03/19 10:55:12;;;;;;;5.30;4.90;;;18.20;52.60;;;;;;5053673;28;20428;-66
2022/03/19 10:57:38;;;;;;;5.93;5.43;;;18.10;51.50;;;;;;5054980;28;20748;-67
2022/03/19 11:00:05;;;;;;;5.97;4.93;;;18.00;50.00;;;;;;5054361;28;20174;-67
2022/03/19 11:02:32;;;;;;;4.77;4.00;;;17.90;49.70;;;;;;5053758;28;20549;-67
2022/03/19 11:04:59;;;;;;;4.50;3.80;;;18.00;49.10;;;;;;5054214;28;20814;-66
2022/03/19 11:07:25;;;;;;;4.57;4.23;;;17.80;49.10;;;;;;5053897;28;20474;-67
2022/03/19 11:09:53;;;;;;;4.87;4.43;;;18.00;48.10;;;;;;5053244;28;20424;-66
2022/03/19 11:12:24;;;;;;;3.73;3.40;;;18.00;48.80;;;;;;5053830;28;20404;-67
2022/03/19 11:14:55;;;;;;;5.10;4.70;;;18.10;47.50;;;;;;5054542;28;20400;-66
2022/03/19 11:17:32;;;;;;;4.10;3.70;;;17.80;46.20;;;;;;5053875;28;20488;-67
2022/03/19 11:20:12;;;;;;;4.00;3.70;;;17.80;47.40;;;;;;5054258;28;20455;-67
2022/03/19 11:22:50;;;;;;;3.43;3.23;;;18.00;47.90;;;;;;5053985;28;20446;-67
2022/03/19 11:25:27;;;;;;;4.60;4.30;;;18.00;46.10;;;;;;5053323;28;20448;-67
2022/03/19 11:28:00;;;;;;;4.77;4.37;;;17.80;46.10;;;;;;5054387;28;20760;-67
2022/03/19 11:30:31;;;;;;;4.67;4.20;;;17.70;45.90;;;;;;5053597;28;20415;-67
2022/03/19 11:33:16;;;;;;;4.27;3.97;;;17.60;46.10;;;;;;5054014;28;20408;-67
2022/03/19 11:35:47;;;;;;;5.27;3.83;;;17.70;45.50;;;;;;5054178;28;20499;-67
2022/03/19 11:38:21;;;;;;;4.10;3.70;;;17.70;44.80;;;;;;5053494;28;20404;-67
2022/03/19 11:40:55;;;;;;;4.23;3.83;;;17.90;45.40;;;;;;5052745;28;20403;-67
2022/03/19 11:43:31;;;;;;;4.17;3.83;;;17.70;44.50;;;;;;5053366;28;20924;-67
2022/03/19 11:46:00;;;;;;;5.70;5.13;;;17.70;45.80;;;;;;5053993;28;20423;-67
2022/03/19 11:48:35;;;;;;;4.10;3.80;;;17.50;45.90;;;;;;5051984;28;20740;-67
2022/03/19 11:51:25;;;;;;;4.43;3.43;;;17.60;45.50;;;;;;5053989;28;20443;-66
2022/03/19 11:53:55;;;;;;;3.20;3.00;;;17.90;46.10;;;;;;5053673;28;20435;-67
2022/03/19 11:56:42;;;;;;;5.10;3.60;;;17.80;44.30;;;;;;5053035;28;20413;-68
2022/03/19 11:59:23;;;;;;;3.73;3.47;;;17.80;45.50;;;;;;5053368;28;20452;-67
2022/03/19 12:01:58;;;;;;;4.10;3.70;;;17.20;45.40;;;;;;5053702;28;20420;-67
2022/03/19 12:04:25;;;;;;;4.40;4.10;;;17.00;47.00;;;;;;5052008;28;20793;-67
2022/03/19 12:06:55;;;;;;;4.67;4.27;;;17.40;46.10;;;;;;5035662;28;20975;-67
2022/03/19 12:09:50;;;;;;;3.90;3.60;;;17.40;45.20;;;;;;5052324;28;20492;-67
2022/03/19 12:12:15;;;;;;;4.23;3.93;;;17.60;43.70;;;;;;5052307;28;20499;-67
2022/03/19 12:14:43;;;;;;;3.60;3.30;;;17.60;44.60;;;;;;5053217;28;20452;-67
2022/03/19 12:17:23;;;;;;;3.63;3.20;;;17.70;43.20;;;;;;5051956;28;20169;-67
2022/03/19 12:19:54;;;;;;;3.30;3.10;;;17.80;43.30;;;;;;5053243;28;20491;-67
2022/03/19 12:22:30;;;;;;;3.93;3.57;;;17.70;42.00;;;;;;5052581;28;20431;-67
2022/03/19 12:25:12;;;;;;;3.17;2.97;;;17.60;44.50;;;;;;5052951;28;20448;-66
2022/03/19 12:27:38;;;;;;;3.70;3.47;;;17.50;42.50;;;;;;5052450;28;20466;-67
2022/03/19 12:30:09;;;;;;;3.60;3.30;;;17.50;42.80;;;;;;5051592;28;20416;-67
2022/03/19 12:32:58;;;;;;;5.53;3.50;;;17.40;42.60;;;;;;5052184;28;20404;-67
2022/03/19 12:35:26;;;;;;;4.20;3.30;;;17.50;44.00;;;;;;5052607;28;20416;-67
2022/03/19 12:37:57;;;;;;;2.97;2.77;;;17.60;43.60;;;;;;5052953;28;20408;-67
2022/03/19 12:40:25;;;;;;;3.37;2.70;;;17.50;43.00;;;;;;5051905;28;20443;-68
2022/03/19 12:42:57;;;;;;;3.60;3.40;;;17.50;42.10;;;;;;5052856;28;20416;-67
2022/03/19 12:45:39;;;;;;;4.20;3.73;;;17.50;43.90;;;;;;5052150;28;20444;-67
2022/03/19 12:48:31;;;;;;;6.33;4.33;;;17.40;42.80;;;;;;5053111;28;20404;-67
2022/03/19 12:50:57;;;;;;;3.47;3.17;;;17.00;42.20;;;;;;5052755;28;20396;-66
2022/03/19 12:53:37;;;;;;;3.57;3.37;;;16.80;43.10;;;;;;5051996;28;20430;-67
2022/03/19 12:56:29;;;;;;;3.10;2.90;;;16.50;41.40;;;;;;5052733;28;20396;-67
2022/03/19 12:58:57;;;;;;;3.57;3.20;;;16.30;41.60;;;;;;5051507;28;20427;-67
2022/03/19 13:01:25;;;;;;;3.50;3.20;;;16.30;42.70;;;;;;5052083;28;20421;-66
2022/03/19 13:04:01;;;;;;;4.30;3.90;;;16.30;42.80;;;;;;5052443;28;20467;-67